sensor_id;sensor_type;location;lat;lon;timestamp;P1;durP1;ratioP1;P2;durP2;ratioP2
10056;SDS011;5068;51.286;7.518;2023-08-17T00:00:31;5.28;;;3.03;;
10056;SDS011;5068;51.286;7.518;2023-08-17T00:02:04;5.53;;;3.15;;
10056;SDS011;5068;51.286;7.518;2023-08-17T00:03:37;3.83;;;3.25;;
10056;SDS011;5068;51.286;7.518;2023-08-17T00:05:10;2.85;;;2.30;;
10056;SDS011;5068;51.286;7.518;2023-08-17T00:06:43;4.85;;;2.58;;
10056;SDS011;5068;51.286;7.518;2023-08-17T00:08:18;4.13;;;2.67;;
10056;SDS011;5068;51.286;7.518;2023-08-17T00:09:51;4.90;;;2.80;;
10056;SDS011;5068;51.286;7.518;2023-08-17T00:11:25;4.30;;;2.58;;
10056;SDS011;5068;51.286;7.518;2023-08-17T00:12:57;4.45;;;2.40;;
10056;SDS011;5068;51.286;7.518;2023-08-17T00:14:31;4.70;;;2.97;;
10056;SDS011;5068;51.286;7.518;2023-08-17T00:16:04;4.57;;;3.00;;
10056;SDS011;5068;51.286;7.518;2023-08-17T00:17:37;4.80;;;2.30;;
10056;SDS011;5068;51.286;7.518;2023-08-17T00:19:09;5.07;;;2.63;;
10056;SDS011;5068;51.286;7.518;2023-08-17T00:20:43;6.30;;;3.03;;
10056;SDS011;5068;51.286;7.518;2023-08-17T00:22:15;4.35;;;2.78;;
10056;SDS011;5068;51.286;7.518;2023-08-17T00:23:49;5.90;;;3.05;;
10056;SDS011;5068;51.286;7.518;2023-08-17T00:25:23;3.40;;;3.08;;
10056;SDS011;5068;51.286;7.518;2023-08-17T00:26:56;3.80;;;3.25;;
10056;SDS011;5068;51.286;7.518;2023-08-17T00:28:29;5.07;;;3.53;;
10056;SDS011;5068;51.286;7.518;2023-08-17T00:30:01;5.35;;;3.17;;
10056;SDS011;5068;51.286;7.518;2023-08-17T00:31:35;4.00;;;3.63;;
10056;SDS011;5068;51.286;7.518;2023-08-17T00:33:09;4.32;;;3.60;;
10056;SDS011;5068;51.286;7.518;2023-08-17T00:34:42;4.05;;;3.17;;
10056;SDS011;5068;51.286;7.518;2023-08-17T00:36:15;3.90;;;3.40;;
10056;SDS011;5068;51.286;7.518;2023-08-17T00:37:47;4.97;;;3.55;;
10056;SDS011;5068;51.286;7.518;2023-08-17T00:39:21;4.03;;;3.50;;
10056;SDS011;5068;51.286;7.518;2023-08-17T00:40:54;5.18;;;3.47;;
10056;SDS011;5068;51.286;7.518;2023-08-17T00:42:28;4.93;;;3.50;;
10056;SDS011;5068;51.286;7.518;2023-08-17T00:44:00;4.03;;;3.63;;
10056;SDS011;5068;51.286;7.518;2023-08-17T00:45:33;5.13;;;3.33;;
10056;SDS011;5068;51.286;7.518;2023-08-17T00:47:07;4.30;;;3.30;;
10056;SDS011;5068;51.286;7.518;2023-08-17T00:48:40;5.53;;;4.03;;
10056;SDS011;5068;51.286;7.518;2023-08-17T00:50:14;3.67;;;3.38;;
10056;SDS011;5068;51.286;7.518;2023-08-17T00:51:48;4.07;;;3.20;;
10056;SDS011;5068;51.286;7.518;2023-08-17T00:53:20;3.83;;;3.40;;
10056;SDS011;5068;51.286;7.518;2023-08-17T00:54:56;3.78;;;2.95;;
10056;SDS011;5068;51.286;7.518;2023-08-17T00:56:30;5.35;;;3.50;;
10056;SDS011;5068;51.286;7.518;2023-08-17T00:58:04;5.25;;;3.33;;
10056;SDS011;5068;51.286;7.518;2023-08-17T00:59:37;3.83;;;3.53;;
10056;SDS011;5068;51.286;7.518;2023-08-17T01:01:15;2.85;;;2.65;;
10056;SDS011;5068;51.286;7.518;2023-08-17T01:02:48;2.85;;;2.53;;
10056;SDS011;5068;51.286;7.518;2023-08-17T01:04:23;3.58;;;2.92;;
10056;SDS011;5068;51.286;7.518;2023-08-17T01:05:57;4.57;;;3.10;;
10056;SDS011;5068;51.286;7.518;2023-08-17T01:07:29;4.25;;;3.10;;
10056;SDS011;5068;51.286;7.518;2023-08-17T01:10:40;3.25;;;2.60;;
10056;SDS011;5068;51.286;7.518;2023-08-17T01:12:27;3.25;;;2.50;;
10056;SDS011;5068;51.286;7.518;2023-08-17T01:14:04;4.07;;;2.40;;
10056;SDS011;5068;51.286;7.518;2023-08-17T01:15:45;3.88;;;2.65;;
10056;SDS011;5068;51.286;7.518;2023-08-17T01:17:24;3.25;;;2.40;;
10056;SDS011;5068;51.286;7.518;2023-08-17T01:19:03;3.60;;;2.28;;
10056;SDS011;5068;51.286;7.518;2023-08-17T01:20:41;2.70;;;2.05;;
10056;SDS011;5068;51.286;7.518;2023-08-17T01:22:14;3.35;;;2.25;;
10056;SDS011;5068;51.286;7.518;2023-08-17T01:23:57;4.47;;;2.55;;
10056;SDS011;5068;51.286;7.518;2023-08-17T01:25:31;2.97;;;2.58;;
10056;SDS011;5068;51.286;7.518;2023-08-17T01:27:07;3.40;;;2.28;;
10056;SDS011;5068;51.286;7.518;2023-08-17T01:28:40;2.97;;;2.20;;
10056;SDS011;5068;51.286;7.518;2023-08-17T01:30:15;2.97;;;2.38;;
10056;SDS011;5068;51.286;7.518;2023-08-17T01:32:01;4.25;;;2.97;;
10056;SDS011;5068;51.286;7.518;2023-08-17T01:33:48;3.55;;;2.17;;
10056;SDS011;5068;51.286;7.518;2023-08-17T01:35:28;2.65;;;2.13;;
10056;SDS011;5068;51.286;7.518;2023-08-17T01:37:06;2.85;;;2.30;;
10056;SDS011;5068;51.286;7.518;2023-08-17T01:38:42;2.80;;;2.33;;
10056;SDS011;5068;51.286;7.518;2023-08-17T01:40:18;2.90;;;2.00;;
10056;SDS011;5068;51.286;7.518;2023-08-17T01:41:53;4.20;;;2.88;;
10056;SDS011;5068;51.286;7.518;2023-08-17T01:43:31;4.00;;;2.38;;
10056;SDS011;5068;51.286;7.518;2023-08-17T01:45:04;3.67;;;2.67;;
10056;SDS011;5068;51.286;7.518;2023-08-17T01:46:38;2.97;;;2.28;;
10056;SDS011;5068;51.286;7.518;2023-08-17T01:48:13;3.95;;;2.50;;
10056;SDS011;5068;51.286;7.518;2023-08-17T01:49:46;4.07;;;2.38;;
10056;SDS011;5068;51.286;7.518;2023-08-17T01:51:19;5.80;;;2.50;;
10056;SDS011;5068;51.286;7.518;2023-08-17T01:52:52;3.28;;;2.35;;
10056;SDS011;5068;51.286;7.518;2023-08-17T01:54:25;4.80;;;2.90;;
10056;SDS011;5068;51.286;7.518;2023-08-17T01:56:01;2.80;;;2.45;;
10056;SDS011;5068;51.286;7.518;2023-08-17T01:57:34;4.50;;;2.70;;
10056;SDS011;5068;51.286;7.518;2023-08-17T01:59:08;3.20;;;2.47;;
10056;SDS011;5068;51.286;7.518;2023-08-17T02:00:42;4.95;;;2.50;;
10056;SDS011;5068;51.286;7.518;2023-08-17T02:02:15;4.10;;;2.40;;
10056;SDS011;5068;51.286;7.518;2023-08-17T02:03:48;3.28;;;2.05;;
10056;SDS011;5068;51.286;7.518;2023-08-17T02:05:21;3.97;;;2.22;;
10056;SDS011;5068;51.286;7.518;2023-08-17T02:06:54;3.05;;;2.28;;
10056;SDS011;5068;51.286;7.518;2023-08-17T02:08:27;2.92;;;2.10;;
10056;SDS011;5068;51.286;7.518;2023-08-17T02:09:59;3.13;;;2.15;;
10056;SDS011;5068;51.286;7.518;2023-08-17T02:11:34;2.50;;;2.30;;
10056;SDS011;5068;51.286;7.518;2023-08-17T02:13:06;4.63;;;2.20;;
10056;SDS011;5068;51.286;7.518;2023-08-17T02:14:49;5.32;;;2.58;;
10056;SDS011;5068;51.286;7.518;2023-08-17T02:16:21;3.85;;;2.50;;
10056;SDS011;5068;51.286;7.518;2023-08-17T02:17:54;3.50;;;2.20;;
10056;SDS011;5068;51.286;7.518;2023-08-17T02:19:28;6.53;;;2.80;;
10056;SDS011;5068;51.286;7.518;2023-08-17T02:21:02;2.92;;;2.25;;
10056;SDS011;5068;51.286;7.518;2023-08-17T02:22:35;4.20;;;2.40;;
10056;SDS011;5068;51.286;7.518;2023-08-17T02:24:08;3.13;;;2.05;;
10056;SDS011;5068;51.286;7.518;2023-08-17T02:25:41;3.58;;;2.17;;
10056;SDS011;5068;51.286;7.518;2023-08-17T02:27:14;3.08;;;2.00;;
10056;SDS011;5068;51.286;7.518;2023-08-17T02:30:21;3.67;;;2.17;;
10056;SDS011;5068;51.286;7.518;2023-08-17T02:31:54;2.83;;;2.50;;
10056;SDS011;5068;51.286;7.518;2023-08-17T02:33:29;3.53;;;2.50;;
10056;SDS011;5068;51.286;7.518;2023-08-17T02:35:02;3.42;;;2.63;;
10056;SDS011;5068;51.286;7.518;2023-08-17T02:36:35;3.60;;;2.50;;
10056;SDS011;5068;51.286;7.518;2023-08-17T02:38:08;3.13;;;2.42;;
10056;SDS011;5068;51.286;7.518;2023-08-17T02:41:55;3.00;;;2.33;;
10056;SDS011;5068;51.286;7.518;2023-08-17T02:43:29;3.78;;;2.63;;
10056;SDS011;5068;51.286;7.518;2023-08-17T02:45:02;3.95;;;2.60;;
10056;SDS011;5068;51.286;7.518;2023-08-17T02:46:36;4.15;;;2.58;;
10056;SDS011;5068;51.286;7.518;2023-08-17T02:48:09;3.88;;;2.10;;
10056;SDS011;5068;51.286;7.518;2023-08-17T02:49:42;4.93;;;2.45;;
10056;SDS011;5068;51.286;7.518;2023-08-17T02:51:15;4.57;;;2.60;;
10056;SDS011;5068;51.286;7.518;2023-08-17T02:52:48;3.10;;;2.65;;
10056;SDS011;5068;51.286;7.518;2023-08-17T02:54:21;3.95;;;3.13;;
10056;SDS011;5068;51.286;7.518;2023-08-17T02:55:53;3.88;;;2.90;;
10056;SDS011;5068;51.286;7.518;2023-08-17T02:57:27;4.38;;;2.80;;
10056;SDS011;5068;51.286;7.518;2023-08-17T02:59:00;4.85;;;2.85;;
10056;SDS011;5068;51.286;7.518;2023-08-17T03:00:35;3.22;;;2.92;;
10056;SDS011;5068;51.286;7.518;2023-08-17T03:02:07;3.55;;;2.83;;
10056;SDS011;5068;51.286;7.518;2023-08-17T03:03:40;3.92;;;3.17;;
10056;SDS011;5068;51.286;7.518;2023-08-17T03:05:15;4.25;;;3.15;;
10056;SDS011;5068;51.286;7.518;2023-08-17T03:06:49;4.15;;;3.00;;
10056;SDS011;5068;51.286;7.518;2023-08-17T03:08:21;4.15;;;3.25;;
10056;SDS011;5068;51.286;7.518;2023-08-17T03:09:54;5.50;;;3.90;;
10056;SDS011;5068;51.286;7.518;2023-08-17T03:11:27;4.35;;;3.83;;
10056;SDS011;5068;51.286;7.518;2023-08-17T03:13:00;4.30;;;3.88;;
10056;SDS011;5068;51.286;7.518;2023-08-17T03:14:34;6.72;;;4.28;;
10056;SDS011;5068;51.286;7.518;2023-08-17T03:16:07;7.20;;;4.43;;
10056;SDS011;5068;51.286;7.518;2023-08-17T03:17:41;5.78;;;4.10;;
10056;SDS011;5068;51.286;7.518;2023-08-17T03:19:14;5.30;;;4.70;;
10056;SDS011;5068;51.286;7.518;2023-08-17T03:20:48;4.88;;;4.35;;
10056;SDS011;5068;51.286;7.518;2023-08-17T03:22:20;5.35;;;4.35;;
10056;SDS011;5068;51.286;7.518;2023-08-17T03:23:53;6.30;;;4.82;;
10056;SDS011;5068;51.286;7.518;2023-08-17T03:25:26;6.03;;;4.97;;
10056;SDS011;5068;51.286;7.518;2023-08-17T03:27:00;5.78;;;4.43;;
10056;SDS011;5068;51.286;7.518;2023-08-17T03:28:33;7.70;;;4.63;;
10056;SDS011;5068;51.286;7.518;2023-08-17T03:30:08;7.15;;;4.35;;
10056;SDS011;5068;51.286;7.518;2023-08-17T03:31:41;7.65;;;4.43;;
10056;SDS011;5068;51.286;7.518;2023-08-17T03:33:14;6.22;;;4.32;;
10056;SDS011;5068;51.286;7.518;2023-08-17T03:34:47;4.88;;;4.22;;
10056;SDS011;5068;51.286;7.518;2023-08-17T03:36:20;7.13;;;4.68;;
10056;SDS011;5068;51.286;7.518;2023-08-17T03:37:52;4.90;;;4.22;;
10056;SDS011;5068;51.286;7.518;2023-08-17T03:39:26;5.22;;;3.78;;
10056;SDS011;5068;51.286;7.518;2023-08-17T03:40:58;5.00;;;4.50;;
10056;SDS011;5068;51.286;7.518;2023-08-17T03:42:33;7.85;;;5.32;;
10056;SDS011;5068;51.286;7.518;2023-08-17T03:44:06;5.82;;;4.70;;
10056;SDS011;5068;51.286;7.518;2023-08-17T03:45:42;7.28;;;5.03;;
10056;SDS011;5068;51.286;7.518;2023-08-17T03:47:15;7.55;;;5.10;;
10056;SDS011;5068;51.286;7.518;2023-08-17T03:48:47;6.05;;;5.45;;
10056;SDS011;5068;51.286;7.518;2023-08-17T03:50:21;6.70;;;5.22;;
10056;SDS011;5068;51.286;7.518;2023-08-17T03:51:53;6.35;;;4.95;;
10056;SDS011;5068;51.286;7.518;2023-08-17T03:53:26;7.75;;;5.90;;
10056;SDS011;5068;51.286;7.518;2023-08-17T03:54:58;5.85;;;5.13;;
10056;SDS011;5068;51.286;7.518;2023-08-17T03:56:32;6.38;;;5.43;;
10056;SDS011;5068;51.286;7.518;2023-08-17T03:58:05;6.00;;;5.40;;
10056;SDS011;5068;51.286;7.518;2023-08-17T03:59:37;7.38;;;6.00;;
10056;SDS011;5068;51.286;7.518;2023-08-17T04:01:12;7.68;;;5.65;;
10056;SDS011;5068;51.286;7.518;2023-08-17T04:02:46;8.30;;;5.38;;
10056;SDS011;5068;51.286;7.518;2023-08-17T04:04:21;9.48;;;5.72;;
10056;SDS011;5068;51.286;7.518;2023-08-17T04:05:55;6.95;;;5.43;;
10056;SDS011;5068;51.286;7.518;2023-08-17T04:07:27;8.70;;;6.10;;
10056;SDS011;5068;51.286;7.518;2023-08-17T04:09:01;6.20;;;5.45;;
10056;SDS011;5068;51.286;7.518;2023-08-17T04:10:33;7.88;;;6.40;;
10056;SDS011;5068;51.286;7.518;2023-08-17T04:12:07;7.72;;;5.57;;
10056;SDS011;5068;51.286;7.518;2023-08-17T04:13:40;8.65;;;6.30;;
10056;SDS011;5068;51.286;7.518;2023-08-17T04:15:14;7.60;;;5.85;;
10056;SDS011;5068;51.286;7.518;2023-08-17T04:16:48;8.13;;;5.93;;
10056;SDS011;5068;51.286;7.518;2023-08-17T04:18:22;7.80;;;5.43;;
10056;SDS011;5068;51.286;7.518;2023-08-17T04:19:54;7.15;;;6.25;;
10056;SDS011;5068;51.286;7.518;2023-08-17T04:21:28;8.27;;;6.00;;
10056;SDS011;5068;51.286;7.518;2023-08-17T04:23:00;9.70;;;6.05;;
10056;SDS011;5068;51.286;7.518;2023-08-17T04:24:33;6.40;;;5.20;;
10056;SDS011;5068;51.286;7.518;2023-08-17T04:26:06;6.78;;;5.88;;
10056;SDS011;5068;51.286;7.518;2023-08-17T04:27:39;7.70;;;6.22;;
10056;SDS011;5068;51.286;7.518;2023-08-17T04:29:12;7.95;;;6.60;;
10056;SDS011;5068;51.286;7.518;2023-08-17T04:30:46;7.15;;;5.95;;
10056;SDS011;5068;51.286;7.518;2023-08-17T04:32:20;8.57;;;6.38;;
10056;SDS011;5068;51.286;7.518;2023-08-17T04:33:54;6.80;;;6.10;;
10056;SDS011;5068;51.286;7.518;2023-08-17T04:35:26;8.85;;;6.57;;
10056;SDS011;5068;51.286;7.518;2023-08-17T04:36:59;9.25;;;6.53;;
10056;SDS011;5068;51.286;7.518;2023-08-17T04:38:33;10.13;;;6.82;;
10056;SDS011;5068;51.286;7.518;2023-08-17T04:40:06;7.38;;;5.90;;
10056;SDS011;5068;51.286;7.518;2023-08-17T04:41:41;9.13;;;6.20;;
10056;SDS011;5068;51.286;7.518;2023-08-17T04:43:16;10.02;;;6.57;;
10056;SDS011;5068;51.286;7.518;2023-08-17T04:44:49;8.93;;;7.13;;
10056;SDS011;5068;51.286;7.518;2023-08-17T04:46:21;9.95;;;7.05;;
10056;SDS011;5068;51.286;7.518;2023-08-17T04:47:56;9.65;;;7.00;;
10056;SDS011;5068;51.286;7.518;2023-08-17T04:49:30;10.77;;;7.82;;
10056;SDS011;5068;51.286;7.518;2023-08-17T04:51:02;10.13;;;7.38;;
10056;SDS011;5068;51.286;7.518;2023-08-17T04:52:36;9.73;;;7.03;;
10056;SDS011;5068;51.286;7.518;2023-08-17T04:54:08;11.48;;;6.72;;
10056;SDS011;5068;51.286;7.518;2023-08-17T04:55:41;9.50;;;7.63;;
10056;SDS011;5068;51.286;7.518;2023-08-17T04:57:13;9.48;;;7.78;;
10056;SDS011;5068;51.286;7.518;2023-08-17T04:58:47;8.73;;;6.70;;
10056;SDS011;5068;51.286;7.518;2023-08-17T05:00:21;9.48;;;7.93;;
10056;SDS011;5068;51.286;7.518;2023-08-17T05:02:00;8.27;;;7.47;;
10056;SDS011;5068;51.286;7.518;2023-08-17T05:03:34;8.85;;;7.82;;
10056;SDS011;5068;51.286;7.518;2023-08-17T05:05:08;11.23;;;7.57;;
10056;SDS011;5068;51.286;7.518;2023-08-17T05:06:42;12.13;;;7.85;;
10056;SDS011;5068;51.286;7.518;2023-08-17T05:08:16;11.18;;;7.30;;
10056;SDS011;5068;51.286;7.518;2023-08-17T05:09:48;8.45;;;7.10;;
10056;SDS011;5068;51.286;7.518;2023-08-17T05:11:23;9.45;;;7.38;;
10056;SDS011;5068;51.286;7.518;2023-08-17T05:12:55;9.52;;;7.70;;
10056;SDS011;5068;51.286;7.518;2023-08-17T05:14:29;11.45;;;7.53;;
10056;SDS011;5068;51.286;7.518;2023-08-17T05:16:01;10.85;;;8.02;;
10056;SDS011;5068;51.286;7.518;2023-08-17T05:17:35;10.70;;;7.30;;
10056;SDS011;5068;51.286;7.518;2023-08-17T05:19:09;9.02;;;7.13;;
10056;SDS011;5068;51.286;7.518;2023-08-17T05:20:42;10.60;;;7.47;;
10056;SDS011;5068;51.286;7.518;2023-08-17T05:22:14;11.88;;;8.43;;
10056;SDS011;5068;51.286;7.518;2023-08-17T05:23:48;10.93;;;7.85;;
10056;SDS011;5068;51.286;7.518;2023-08-17T05:25:21;11.60;;;7.72;;
10056;SDS011;5068;51.286;7.518;2023-08-17T05:26:54;9.82;;;7.70;;
10056;SDS011;5068;51.286;7.518;2023-08-17T05:28:27;12.25;;;8.45;;
10056;SDS011;5068;51.286;7.518;2023-08-17T05:29:59;9.70;;;7.25;;
10056;SDS011;5068;51.286;7.518;2023-08-17T05:31:32;9.25;;;7.47;;
10056;SDS011;5068;51.286;7.518;2023-08-17T05:33:05;11.55;;;7.80;;
10056;SDS011;5068;51.286;7.518;2023-08-17T05:34:39;10.82;;;7.97;;
10056;SDS011;5068;51.286;7.518;2023-08-17T05:36:12;11.02;;;8.35;;
10056;SDS011;5068;51.286;7.518;2023-08-17T05:37:45;10.57;;;7.90;;
10056;SDS011;5068;51.286;7.518;2023-08-17T05:39:18;11.02;;;8.60;;
10056;SDS011;5068;51.286;7.518;2023-08-17T05:42:29;9.68;;;6.88;;
10056;SDS011;5068;51.286;7.518;2023-08-17T05:44:02;9.70;;;7.63;;
10056;SDS011;5068;51.286;7.518;2023-08-17T05:45:38;9.50;;;7.40;;
10056;SDS011;5068;51.286;7.518;2023-08-17T05:47:11;10.65;;;7.60;;
10056;SDS011;5068;51.286;7.518;2023-08-17T05:48:46;10.50;;;7.55;;
10056;SDS011;5068;51.286;7.518;2023-08-17T05:50:21;9.15;;;7.00;;
10056;SDS011;5068;51.286;7.518;2023-08-17T05:51:54;10.40;;;8.00;;
10056;SDS011;5068;51.286;7.518;2023-08-17T05:53:26;9.55;;;7.57;;
10056;SDS011;5068;51.286;7.518;2023-08-17T05:55:00;10.73;;;7.75;;
10056;SDS011;5068;51.286;7.518;2023-08-17T05:56:32;10.40;;;7.00;;
10056;SDS011;5068;51.286;7.518;2023-08-17T05:58:05;8.25;;;6.88;;
10056;SDS011;5068;51.286;7.518;2023-08-17T05:59:38;8.68;;;6.65;;
10056;SDS011;5068;51.286;7.518;2023-08-17T06:01:11;10.55;;;6.93;;
10056;SDS011;5068;51.286;7.518;2023-08-17T06:02:43;10.20;;;6.85;;
10056;SDS011;5068;51.286;7.518;2023-08-17T06:04:21;9.40;;;7.85;;
10056;SDS011;5068;51.286;7.518;2023-08-17T06:05:55;10.07;;;7.78;;
10056;SDS011;5068;51.286;7.518;2023-08-17T06:09:00;8.82;;;6.63;;
10056;SDS011;5068;51.286;7.518;2023-08-17T06:10:34;9.90;;;6.85;;
10056;SDS011;5068;51.286;7.518;2023-08-17T06:12:07;8.63;;;6.65;;
10056;SDS011;5068;51.286;7.518;2023-08-17T06:13:40;9.02;;;7.15;;
10056;SDS011;5068;51.286;7.518;2023-08-17T06:15:13;9.77;;;7.07;;
10056;SDS011;5068;51.286;7.518;2023-08-17T06:16:46;9.02;;;6.13;;
10056;SDS011;5068;51.286;7.518;2023-08-17T06:18:19;7.05;;;5.70;;
10056;SDS011;5068;51.286;7.518;2023-08-17T06:19:52;7.65;;;5.97;;
10056;SDS011;5068;51.286;7.518;2023-08-17T06:21:27;7.28;;;6.28;;
10056;SDS011;5068;51.286;7.518;2023-08-17T06:22:59;8.20;;;5.43;;
10056;SDS011;5068;51.286;7.518;2023-08-17T06:24:32;8.70;;;5.70;;
10056;SDS011;5068;51.286;7.518;2023-08-17T06:26:05;7.40;;;5.18;;
10056;SDS011;5068;51.286;7.518;2023-08-17T06:27:41;6.47;;;5.15;;
10056;SDS011;5068;51.286;7.518;2023-08-17T06:29:15;6.28;;;4.72;;
10056;SDS011;5068;51.286;7.518;2023-08-17T06:30:51;5.68;;;4.53;;
10056;SDS011;5068;51.286;7.518;2023-08-17T06:32:24;7.35;;;5.43;;
10056;SDS011;5068;51.286;7.518;2023-08-17T06:33:57;6.78;;;5.20;;
10056;SDS011;5068;51.286;7.518;2023-08-17T06:35:31;6.20;;;5.03;;
10056;SDS011;5068;51.286;7.518;2023-08-17T06:37:05;8.07;;;5.22;;
10056;SDS011;5068;51.286;7.518;2023-08-17T06:38:38;6.57;;;5.35;;
10056;SDS011;5068;51.286;7.518;2023-08-17T06:40:11;5.60;;;4.75;;
10056;SDS011;5068;51.286;7.518;2023-08-17T06:41:43;6.03;;;5.20;;
10056;SDS011;5068;51.286;7.518;2023-08-17T06:43:17;6.28;;;4.38;;
10056;SDS011;5068;51.286;7.518;2023-08-17T06:44:50;7.03;;;4.65;;
10056;SDS011;5068;51.286;7.518;2023-08-17T06:46:24;7.45;;;5.22;;
10056;SDS011;5068;51.286;7.518;2023-08-17T06:47:59;5.30;;;4.40;;
10056;SDS011;5068;51.286;7.518;2023-08-17T06:49:31;5.45;;;4.50;;
10056;SDS011;5068;51.286;7.518;2023-08-17T06:51:05;6.00;;;4.30;;
10056;SDS011;5068;51.286;7.518;2023-08-17T06:52:39;7.57;;;4.30;;
10056;SDS011;5068;51.286;7.518;2023-08-17T06:54:12;5.88;;;4.57;;
10056;SDS011;5068;51.286;7.518;2023-08-17T06:55:45;5.68;;;5.07;;
10056;SDS011;5068;51.286;7.518;2023-08-17T06:57:19;6.60;;;4.82;;
10056;SDS011;5068;51.286;7.518;2023-08-17T06:58:53;6.35;;;4.78;;
10056;SDS011;5068;51.286;7.518;2023-08-17T07:00:26;5.93;;;4.45;;
10056;SDS011;5068;51.286;7.518;2023-08-17T07:01:58;7.07;;;5.35;;
10056;SDS011;5068;51.286;7.518;2023-08-17T07:05:06;7.50;;;4.97;;
10056;SDS011;5068;51.286;7.518;2023-08-17T07:06:39;7.05;;;5.28;;
10056;SDS011;5068;51.286;7.518;2023-08-17T07:08:16;7.57;;;5.70;;
10056;SDS011;5068;51.286;7.518;2023-08-17T07:09:48;7.80;;;5.65;;
10056;SDS011;5068;51.286;7.518;2023-08-17T07:11:22;7.63;;;5.75;;
10056;SDS011;5068;51.286;7.518;2023-08-17T07:12:54;7.45;;;5.43;;
10056;SDS011;5068;51.286;7.518;2023-08-17T07:14:27;7.65;;;5.10;;
10056;SDS011;5068;51.286;7.518;2023-08-17T07:15:59;7.25;;;5.53;;
10056;SDS011;5068;51.286;7.518;2023-08-17T07:17:33;7.63;;;5.57;;
10056;SDS011;5068;51.286;7.518;2023-08-17T07:20:41;7.70;;;6.05;;
10056;SDS011;5068;51.286;7.518;2023-08-17T07:22:14;8.68;;;6.30;;
10056;SDS011;5068;51.286;7.518;2023-08-17T07:23:50;9.65;;;6.28;;
10056;SDS011;5068;51.286;7.518;2023-08-17T07:25:23;8.23;;;5.90;;
10056;SDS011;5068;51.286;7.518;2023-08-17T07:26:56;8.35;;;6.70;;
10056;SDS011;5068;51.286;7.518;2023-08-17T07:28:29;7.55;;;6.45;;
10056;SDS011;5068;51.286;7.518;2023-08-17T07:30:02;7.97;;;5.72;;
10056;SDS011;5068;51.286;7.518;2023-08-17T07:31:36;7.22;;;6.47;;
10056;SDS011;5068;51.286;7.518;2023-08-17T07:33:09;8.88;;;6.32;;
10056;SDS011;5068;51.286;7.518;2023-08-17T07:34:42;7.35;;;5.70;;
10056;SDS011;5068;51.286;7.518;2023-08-17T07:36:14;8.27;;;5.93;;
10056;SDS011;5068;51.286;7.518;2023-08-17T07:37:48;7.53;;;5.68;;
10056;SDS011;5068;51.286;7.518;2023-08-17T07:39:54;6.50;;;4.85;;
10056;SDS011;5068;51.286;7.518;2023-08-17T07:41:28;7.82;;;6.28;;
10056;SDS011;5068;51.286;7.518;2023-08-17T07:43:00;7.07;;;5.82;;
10056;SDS011;5068;51.286;7.518;2023-08-17T07:44:34;5.78;;;5.03;;
10056;SDS011;5068;51.286;7.518;2023-08-17T07:46:06;9.18;;;5.60;;
10056;SDS011;5068;51.286;7.518;2023-08-17T07:47:40;7.75;;;5.45;;
10056;SDS011;5068;51.286;7.518;2023-08-17T07:49:12;5.93;;;5.07;;
10056;SDS011;5068;51.286;7.518;2023-08-17T07:51:02;6.90;;;5.15;;
10056;SDS011;5068;51.286;7.518;2023-08-17T07:52:35;6.45;;;4.90;;
10056;SDS011;5068;51.286;7.518;2023-08-17T07:54:08;5.55;;;4.65;;
10056;SDS011;5068;51.286;7.518;2023-08-17T07:55:42;6.30;;;4.60;;
10056;SDS011;5068;51.286;7.518;2023-08-17T07:57:15;6.70;;;5.00;;
10056;SDS011;5068;51.286;7.518;2023-08-17T07:58:48;5.93;;;4.65;;
10056;SDS011;5068;51.286;7.518;2023-08-17T08:00:21;6.32;;;4.57;;
10056;SDS011;5068;51.286;7.518;2023-08-17T08:01:53;5.68;;;4.65;;
10056;SDS011;5068;51.286;7.518;2023-08-17T08:03:27;5.95;;;4.57;;
10056;SDS011;5068;51.286;7.518;2023-08-17T08:04:59;5.80;;;4.30;;
10056;SDS011;5068;51.286;7.518;2023-08-17T08:06:33;5.30;;;4.70;;
10056;SDS011;5068;51.286;7.518;2023-08-17T08:08:05;6.90;;;4.35;;
10056;SDS011;5068;51.286;7.518;2023-08-17T08:09:38;5.05;;;4.55;;
10056;SDS011;5068;51.286;7.518;2023-08-17T08:11:12;5.75;;;5.00;;
10056;SDS011;5068;51.286;7.518;2023-08-17T08:14:18;5.65;;;4.20;;
10056;SDS011;5068;51.286;7.518;2023-08-17T08:15:51;5.22;;;4.22;;
10056;SDS011;5068;51.286;7.518;2023-08-17T08:17:24;6.13;;;4.65;;
10056;SDS011;5068;51.286;7.518;2023-08-17T08:18:59;4.78;;;3.95;;
10056;SDS011;5068;51.286;7.518;2023-08-17T08:20:31;5.60;;;4.78;;
10056;SDS011;5068;51.286;7.518;2023-08-17T08:22:04;6.72;;;4.88;;
10056;SDS011;5068;51.286;7.518;2023-08-17T08:23:36;6.32;;;4.72;;
10056;SDS011;5068;51.286;7.518;2023-08-17T08:25:10;5.75;;;4.75;;
10056;SDS011;5068;51.286;7.518;2023-08-17T08:26:44;4.95;;;4.20;;
10056;SDS011;5068;51.286;7.518;2023-08-17T08:28:16;5.63;;;4.70;;
10056;SDS011;5068;51.286;7.518;2023-08-17T08:29:50;6.18;;;4.53;;
10056;SDS011;5068;51.286;7.518;2023-08-17T08:31:22;7.18;;;4.32;;
10056;SDS011;5068;51.286;7.518;2023-08-17T08:32:58;4.85;;;4.30;;
10056;SDS011;5068;51.286;7.518;2023-08-17T08:34:31;6.13;;;4.50;;
10056;SDS011;5068;51.286;7.518;2023-08-17T08:36:04;5.50;;;4.75;;
10056;SDS011;5068;51.286;7.518;2023-08-17T08:37:38;6.97;;;4.45;;
10056;SDS011;5068;51.286;7.518;2023-08-17T08:39:13;4.45;;;4.00;;
10056;SDS011;5068;51.286;7.518;2023-08-17T08:40:46;5.45;;;4.55;;
10056;SDS011;5068;51.286;7.518;2023-08-17T08:42:23;5.18;;;3.70;;
10056;SDS011;5068;51.286;7.518;2023-08-17T08:43:56;5.32;;;3.97;;
10056;SDS011;5068;51.286;7.518;2023-08-17T08:45:30;6.50;;;4.32;;
10056;SDS011;5068;51.286;7.518;2023-08-17T08:47:03;7.30;;;4.13;;
10056;SDS011;5068;51.286;7.518;2023-08-17T08:48:37;4.53;;;4.13;;
10056;SDS011;5068;51.286;7.518;2023-08-17T08:50:17;5.85;;;3.72;;
10056;SDS011;5068;51.286;7.518;2023-08-17T08:51:53;6.30;;;4.93;;
10056;SDS011;5068;51.286;7.518;2023-08-17T08:53:35;6.75;;;4.75;;
10056;SDS011;5068;51.286;7.518;2023-08-17T08:55:12;5.80;;;4.10;;
10056;SDS011;5068;51.286;7.518;2023-08-17T08:56:51;6.72;;;4.47;;
10056;SDS011;5068;51.286;7.518;2023-08-17T08:58:33;5.50;;;3.97;;
10056;SDS011;5068;51.286;7.518;2023-08-17T09:00:11;4.80;;;4.07;;
10056;SDS011;5068;51.286;7.518;2023-08-17T09:01:45;4.93;;;4.43;;
10056;SDS011;5068;51.286;7.518;2023-08-17T09:03:22;5.95;;;4.03;;
10056;SDS011;5068;51.286;7.518;2023-08-17T09:04:56;5.47;;;4.18;;
10056;SDS011;5068;51.286;7.518;2023-08-17T09:06:32;5.30;;;4.47;;
10056;SDS011;5068;51.286;7.518;2023-08-17T09:08:08;5.68;;;4.13;;
10056;SDS011;5068;51.286;7.518;2023-08-17T09:09:51;5.65;;;4.43;;
10056;SDS011;5068;51.286;7.518;2023-08-17T09:11:25;5.20;;;4.00;;
10056;SDS011;5068;51.286;7.518;2023-08-17T09:13:00;5.32;;;4.35;;
10056;SDS011;5068;51.286;7.518;2023-08-17T09:14:36;5.30;;;4.32;;
10056;SDS011;5068;51.286;7.518;2023-08-17T09:16:09;5.22;;;4.40;;
10056;SDS011;5068;51.286;7.518;2023-08-17T09:17:44;5.18;;;4.20;;
10056;SDS011;5068;51.286;7.518;2023-08-17T09:19:19;5.57;;;4.13;;
10056;SDS011;5068;51.286;7.518;2023-08-17T09:20:53;5.22;;;4.20;;
10056;SDS011;5068;51.286;7.518;2023-08-17T09:22:36;5.50;;;4.25;;
10056;SDS011;5068;51.286;7.518;2023-08-17T09:24:11;4.40;;;4.00;;
10056;SDS011;5068;51.286;7.518;2023-08-17T09:25:44;5.28;;;4.25;;
10056;SDS011;5068;51.286;7.518;2023-08-17T09:27:21;4.32;;;3.80;;
10056;SDS011;5068;51.286;7.518;2023-08-17T09:28:54;5.55;;;4.20;;
10056;SDS011;5068;51.286;7.518;2023-08-17T09:30:29;4.95;;;4.13;;
10056;SDS011;5068;51.286;7.518;2023-08-17T09:32:04;5.93;;;4.20;;
10056;SDS011;5068;51.286;7.518;2023-08-17T09:33:38;6.15;;;4.22;;
10056;SDS011;5068;51.286;7.518;2023-08-17T09:35:16;5.90;;;4.38;;
10056;SDS011;5068;51.286;7.518;2023-08-17T09:36:52;5.00;;;4.47;;
10056;SDS011;5068;51.286;7.518;2023-08-17T09:38:24;4.65;;;4.25;;
10056;SDS011;5068;51.286;7.518;2023-08-17T09:41:37;6.00;;;4.28;;
10056;SDS011;5068;51.286;7.518;2023-08-17T09:43:14;5.30;;;4.70;;
10056;SDS011;5068;51.286;7.518;2023-08-17T09:44:49;5.28;;;4.38;;
10056;SDS011;5068;51.286;7.518;2023-08-17T09:46:24;5.22;;;4.68;;
10056;SDS011;5068;51.286;7.518;2023-08-17T09:47:58;4.68;;;3.92;;
10056;SDS011;5068;51.286;7.518;2023-08-17T09:49:34;8.23;;;4.68;;